X  Sluiten METAR luchtvaart weer gegevens      EGNS Isle of Man Airport
Temperatuur
10°C Temperatuur
9°C Dauwpunt
94% Vochtigheid



Wind
18 MPH
29 KM/U
8 M/S
16 KTS



210°
ZZW
Huidig weer

Regen Regen
Luchtdruk 1005.08 (hPa) - 29.68 (inHg)
Zicht 2.2 (mijl) - 3.5 (km)
Vliegveld
Vliegveld code EGNS

Locatie : Isle of Man Airport
Afstand: 18 (mi)

Metar:
EGNS 281620Z 21016KT 3500 RA BKN003 OVC013 10/09 Q1005 NOSIG

Tijd: 28-02-2024 16:20 GMT